sensor_id;sensor_type;location;lat;lon;timestamp;P1;durP1;ratioP1;P2;durP2;ratioP2
82900;SDS011;72673;50.822;3.280;2024-01-25T00:01:11;54.60;;;6.30;;
82900;SDS011;72673;50.822;3.280;2024-01-25T00:03:36;42.50;;;5.55;;
82900;SDS011;72673;50.822;3.280;2024-01-25T00:06:02;60.97;;;6.65;;
82900;SDS011;72673;50.822;3.280;2024-01-25T00:08:29;67.68;;;5.78;;
82900;SDS011;72673;50.822;3.280;2024-01-25T00:10:54;48.53;;;6.15;;
82900;SDS011;72673;50.822;3.280;2024-01-25T00:13:20;60.28;;;6.93;;
82900;SDS011;72673;50.822;3.280;2024-01-25T00:15:46;55.90;;;5.90;;
82900;SDS011;72673;50.822;3.280;2024-01-25T00:18:11;46.70;;;6.45;;
82900;SDS011;72673;50.822;3.280;2024-01-25T00:20:37;69.15;;;6.82;;
82900;SDS011;72673;50.822;3.280;2024-01-25T00:23:02;57.40;;;6.80;;
82900;SDS011;72673;50.822;3.280;2024-01-25T00:25:28;50.50;;;6.45;;
82900;SDS011;72673;50.822;3.280;2024-01-25T00:27:54;73.10;;;6.78;;
82900;SDS011;72673;50.822;3.280;2024-01-25T00:30:19;52.60;;;7.30;;
82900;SDS011;72673;50.822;3.280;2024-01-25T00:32:45;58.38;;;7.65;;
82900;SDS011;72673;50.822;3.280;2024-01-25T00:35:11;59.13;;;6.57;;
82900;SDS011;72673;50.822;3.280;2024-01-25T00:37:39;65.25;;;6.97;;
82900;SDS011;72673;50.822;3.280;2024-01-25T00:40:05;54.92;;;6.63;;
82900;SDS011;72673;50.822;3.280;2024-01-25T00:42:31;54.28;;;6.25;;
82900;SDS011;72673;50.822;3.280;2024-01-25T00:45:03;54.63;;;6.38;;
82900;SDS011;72673;50.822;3.280;2024-01-25T00:47:29;50.42;;;6.10;;
82900;SDS011;72673;50.822;3.280;2024-01-25T00:49:55;56.15;;;7.30;;
82900;SDS011;72673;50.822;3.280;2024-01-25T00:52:22;58.63;;;5.88;;
82900;SDS011;72673;50.822;3.280;2024-01-25T00:54:47;58.45;;;6.32;;
82900;SDS011;72673;50.822;3.280;2024-01-25T00:57:13;65.72;;;7.80;;
82900;SDS011;72673;50.822;3.280;2024-01-25T00:59:39;56.42;;;6.18;;
82900;SDS011;72673;50.822;3.280;2024-01-25T01:02:05;53.15;;;7.03;;
82900;SDS011;72673;50.822;3.280;2024-01-25T01:04:35;58.83;;;5.50;;
82900;SDS011;72673;50.822;3.280;2024-01-25T01:07:02;61.72;;;7.07;;
82900;SDS011;72673;50.822;3.280;2024-01-25T01:09:28;49.63;;;5.32;;
82900;SDS011;72673;50.822;3.280;2024-01-25T01:11:54;58.40;;;7.78;;
82900;SDS011;72673;50.822;3.280;2024-01-25T01:14:20;60.42;;;6.43;;
82900;SDS011;72673;50.822;3.280;2024-01-25T01:16:45;57.50;;;7.55;;
82900;SDS011;72673;50.822;3.280;2024-01-25T01:19:11;59.40;;;6.40;;
82900;SDS011;72673;50.822;3.280;2024-01-25T01:21:36;55.63;;;7.43;;
82900;SDS011;72673;50.822;3.280;2024-01-25T01:24:03;51.28;;;5.85;;
82900;SDS011;72673;50.822;3.280;2024-01-25T01:26:29;57.90;;;6.72;;
82900;SDS011;72673;50.822;3.280;2024-01-25T01:28:55;52.63;;;6.45;;
82900;SDS011;72673;50.822;3.280;2024-01-25T01:31:20;59.65;;;6.10;;
82900;SDS011;72673;50.822;3.280;2024-01-25T01:33:46;51.92;;;5.85;;
82900;SDS011;72673;50.822;3.280;2024-01-25T01:36:12;64.30;;;7.07;;
82900;SDS011;72673;50.822;3.280;2024-01-25T01:38:38;57.05;;;6.88;;
82900;SDS011;72673;50.822;3.280;2024-01-25T01:41:04;63.75;;;7.03;;
82900;SDS011;72673;50.822;3.280;2024-01-25T01:43:30;58.80;;;6.38;;
82900;SDS011;72673;50.822;3.280;2024-01-25T01:45:57;65.15;;;6.22;;
82900;SDS011;72673;50.822;3.280;2024-01-25T01:48:29;64.43;;;7.03;;
82900;SDS011;72673;50.822;3.280;2024-01-25T01:50:54;69.35;;;6.78;;
82900;SDS011;72673;50.822;3.280;2024-01-25T01:53:20;52.63;;;6.47;;
82900;SDS011;72673;50.822;3.280;2024-01-25T01:55:46;64.10;;;7.20;;
82900;SDS011;72673;50.822;3.280;2024-01-25T01:58:13;63.90;;;7.43;;
82900;SDS011;72673;50.822;3.280;2024-01-25T02:00:39;69.28;;;8.15;;
82900;SDS011;72673;50.822;3.280;2024-01-25T02:03:07;54.55;;;7.57;;
82900;SDS011;72673;50.822;3.280;2024-01-25T02:05:33;60.08;;;6.80;;
82900;SDS011;72673;50.822;3.280;2024-01-25T02:07:59;61.95;;;6.88;;
82900;SDS011;72673;50.822;3.280;2024-01-25T02:10:25;45.40;;;5.55;;
82900;SDS011;72673;50.822;3.280;2024-01-25T02:12:51;51.75;;;6.88;;
82900;SDS011;72673;50.822;3.280;2024-01-25T02:15:16;56.28;;;5.78;;
82900;SDS011;72673;50.822;3.280;2024-01-25T02:17:42;55.80;;;6.15;;
82900;SDS011;72673;50.822;3.280;2024-01-25T02:20:08;60.70;;;6.60;;
82900;SDS011;72673;50.822;3.280;2024-01-25T02:22:34;61.50;;;6.03;;
82900;SDS011;72673;50.822;3.280;2024-01-25T02:24:59;68.05;;;7.18;;
82900;SDS011;72673;50.822;3.280;2024-01-25T02:27:25;63.00;;;7.00;;
82900;SDS011;72673;50.822;3.280;2024-01-25T02:29:50;51.42;;;6.13;;
82900;SDS011;72673;50.822;3.280;2024-01-25T02:32:16;59.00;;;7.05;;
82900;SDS011;72673;50.822;3.280;2024-01-25T02:34:42;66.32;;;6.93;;
82900;SDS011;72673;50.822;3.280;2024-01-25T02:37:07;63.08;;;6.72;;
82900;SDS011;72673;50.822;3.280;2024-01-25T02:39:33;61.58;;;6.30;;
82900;SDS011;72673;50.822;3.280;2024-01-25T02:41:58;67.82;;;8.07;;
82900;SDS011;72673;50.822;3.280;2024-01-25T02:44:24;60.10;;;6.80;;
82900;SDS011;72673;50.822;3.280;2024-01-25T02:46:50;52.08;;;6.57;;
82900;SDS011;72673;50.822;3.280;2024-01-25T02:49:15;62.63;;;7.45;;
82900;SDS011;72673;50.822;3.280;2024-01-25T02:51:41;57.47;;;7.07;;
82900;SDS011;72673;50.822;3.280;2024-01-25T02:54:06;53.15;;;6.22;;
82900;SDS011;72673;50.822;3.280;2024-01-25T02:56:32;59.67;;;6.63;;
82900;SDS011;72673;50.822;3.280;2024-01-25T02:58:59;64.70;;;6.60;;
82900;SDS011;72673;50.822;3.280;2024-01-25T03:01:25;63.10;;;6.13;;
82900;SDS011;72673;50.822;3.280;2024-01-25T03:03:51;61.97;;;8.65;;
82900;SDS011;72673;50.822;3.280;2024-01-25T03:06:16;66.70;;;6.63;;
82900;SDS011;72673;50.822;3.280;2024-01-25T03:08:42;61.88;;;7.07;;
82900;SDS011;72673;50.822;3.280;2024-01-25T03:11:08;66.47;;;6.43;;
82900;SDS011;72673;50.822;3.280;2024-01-25T03:13:33;57.30;;;6.85;;
82900;SDS011;72673;50.822;3.280;2024-01-25T03:15:59;54.70;;;6.07;;
82900;SDS011;72673;50.822;3.280;2024-01-25T03:18:25;51.95;;;5.68;;
82900;SDS011;72673;50.822;3.280;2024-01-25T03:20:50;60.75;;;6.50;;
82900;SDS011;72673;50.822;3.280;2024-01-25T03:23:16;56.67;;;7.20;;
82900;SDS011;72673;50.822;3.280;2024-01-25T03:25:42;49.38;;;6.50;;
82900;SDS011;72673;50.822;3.280;2024-01-25T03:28:07;70.22;;;8.30;;
82900;SDS011;72673;50.822;3.280;2024-01-25T03:30:34;61.83;;;6.10;;
82900;SDS011;72673;50.822;3.280;2024-01-25T03:33:00;74.78;;;7.00;;
82900;SDS011;72673;50.822;3.280;2024-01-25T03:35:26;50.00;;;5.72;;
82900;SDS011;72673;50.822;3.280;2024-01-25T03:37:51;60.58;;;6.57;;
82900;SDS011;72673;50.822;3.280;2024-01-25T03:40:17;66.63;;;6.63;;
82900;SDS011;72673;50.822;3.280;2024-01-25T03:42:42;62.70;;;6.25;;
82900;SDS011;72673;50.822;3.280;2024-01-25T03:45:08;60.22;;;6.60;;
82900;SDS011;72673;50.822;3.280;2024-01-25T03:47:34;56.47;;;6.07;;
82900;SDS011;72673;50.822;3.280;2024-01-25T03:49:59;59.72;;;7.50;;
82900;SDS011;72673;50.822;3.280;2024-01-25T03:52:25;73.82;;;7.18;;
82900;SDS011;72673;50.822;3.280;2024-01-25T03:54:50;68.60;;;7.10;;
82900;SDS011;72673;50.822;3.280;2024-01-25T03:57:16;64.40;;;6.45;;
82900;SDS011;72673;50.822;3.280;2024-01-25T03:59:42;49.42;;;6.95;;
82900;SDS011;72673;50.822;3.280;2024-01-25T04:02:07;52.97;;;6.72;;
82900;SDS011;72673;50.822;3.280;2024-01-25T04:04:34;52.53;;;7.05;;
82900;SDS011;72673;50.822;3.280;2024-01-25T04:07:00;92.30;;;7.53;;
82900;SDS011;72673;50.822;3.280;2024-01-25T04:09:25;68.22;;;7.25;;
82900;SDS011;72673;50.822;3.280;2024-01-25T04:11:51;73.72;;;8.18;;
82900;SDS011;72673;50.822;3.280;2024-01-25T04:14:16;76.78;;;8.18;;
82900;SDS011;72673;50.822;3.280;2024-01-25T04:16:42;78.30;;;7.63;;
82900;SDS011;72673;50.822;3.280;2024-01-25T04:19:08;77.97;;;6.55;;
82900;SDS011;72673;50.822;3.280;2024-01-25T04:21:37;73.93;;;7.30;;
82900;SDS011;72673;50.822;3.280;2024-01-25T04:24:03;73.60;;;8.27;;
82900;SDS011;72673;50.822;3.280;2024-01-25T04:26:29;67.03;;;7.43;;
82900;SDS011;72673;50.822;3.280;2024-01-25T04:28:54;66.82;;;7.13;;
82900;SDS011;72673;50.822;3.280;2024-01-25T04:31:20;68.38;;;7.95;;
82900;SDS011;72673;50.822;3.280;2024-01-25T04:33:46;76.32;;;8.63;;
82900;SDS011;72673;50.822;3.280;2024-01-25T04:36:11;74.28;;;8.50;;
82900;SDS011;72673;50.822;3.280;2024-01-25T04:38:37;82.68;;;8.30;;
82900;SDS011;72673;50.822;3.280;2024-01-25T04:41:03;71.80;;;8.15;;
82900;SDS011;72673;50.822;3.280;2024-01-25T04:43:33;48.47;;;6.93;;
82900;SDS011;72673;50.822;3.280;2024-01-25T04:46:00;66.65;;;7.43;;
82900;SDS011;72673;50.822;3.280;2024-01-25T04:48:26;63.55;;;6.63;;
82900;SDS011;72673;50.822;3.280;2024-01-25T04:50:51;69.25;;;7.10;;
82900;SDS011;72673;50.822;3.280;2024-01-25T04:53:17;47.47;;;7.50;;
82900;SDS011;72673;50.822;3.280;2024-01-25T04:55:43;61.40;;;7.32;;
82900;SDS011;72673;50.822;3.280;2024-01-25T04:58:08;66.32;;;6.90;;
82900;SDS011;72673;50.822;3.280;2024-01-25T05:00:34;71.90;;;7.32;;
82900;SDS011;72673;50.822;3.280;2024-01-25T05:03:00;59.08;;;7.60;;
82900;SDS011;72673;50.822;3.280;2024-01-25T05:05:26;65.20;;;7.60;;
82900;SDS011;72673;50.822;3.280;2024-01-25T05:07:51;81.05;;;7.60;;
82900;SDS011;72673;50.822;3.280;2024-01-25T05:10:17;76.90;;;8.05;;
82900;SDS011;72673;50.822;3.280;2024-01-25T05:12:42;68.53;;;7.35;;
82900;SDS011;72673;50.822;3.280;2024-01-25T05:15:08;61.90;;;7.93;;
82900;SDS011;72673;50.822;3.280;2024-01-25T05:17:34;66.82;;;6.85;;
82900;SDS011;72673;50.822;3.280;2024-01-25T05:20:00;72.85;;;7.40;;
82900;SDS011;72673;50.822;3.280;2024-01-25T05:22:27;77.82;;;7.18;;
82900;SDS011;72673;50.822;3.280;2024-01-25T05:24:53;56.97;;;6.75;;
82900;SDS011;72673;50.822;3.280;2024-01-25T05:27:19;64.20;;;7.55;;
82900;SDS011;72673;50.822;3.280;2024-01-25T05:29:44;62.70;;;7.30;;
82900;SDS011;72673;50.822;3.280;2024-01-25T05:32:10;68.68;;;8.30;;
82900;SDS011;72673;50.822;3.280;2024-01-25T05:34:35;61.22;;;7.43;;
82900;SDS011;72673;50.822;3.280;2024-01-25T05:37:01;66.30;;;8.48;;
82900;SDS011;72673;50.822;3.280;2024-01-25T05:39:27;58.75;;;7.45;;
82900;SDS011;72673;50.822;3.280;2024-01-25T05:41:52;60.22;;;8.60;;
82900;SDS011;72673;50.822;3.280;2024-01-25T05:44:18;70.47;;;8.88;;
82900;SDS011;72673;50.822;3.280;2024-01-25T05:46:43;70.95;;;8.65;;
82900;SDS011;72673;50.822;3.280;2024-01-25T05:49:09;69.78;;;8.27;;
82900;SDS011;72673;50.822;3.280;2024-01-25T05:51:35;60.80;;;8.18;;
82900;SDS011;72673;50.822;3.280;2024-01-25T05:54:01;78.90;;;8.60;;
82900;SDS011;72673;50.822;3.280;2024-01-25T05:56:26;75.97;;;9.10;;
82900;SDS011;72673;50.822;3.280;2024-01-25T05:58:52;76.15;;;9.23;;
82900;SDS011;72673;50.822;3.280;2024-01-25T06:01:17;75.10;;;10.15;;
82900;SDS011;72673;50.822;3.280;2024-01-25T06:03:44;78.07;;;10.15;;
82900;SDS011;72673;50.822;3.280;2024-01-25T06:06:09;73.88;;;9.75;;
82900;SDS011;72673;50.822;3.280;2024-01-25T06:08:35;63.28;;;9.82;;
82900;SDS011;72673;50.822;3.280;2024-01-25T06:11:01;63.03;;;9.55;;
82900;SDS011;72673;50.822;3.280;2024-01-25T06:13:26;73.65;;;9.82;;
82900;SDS011;72673;50.822;3.280;2024-01-25T06:15:52;64.38;;;9.10;;
82900;SDS011;72673;50.822;3.280;2024-01-25T06:18:18;65.07;;;9.00;;
82900;SDS011;72673;50.822;3.280;2024-01-25T06:20:43;76.43;;;10.93;;
82900;SDS011;72673;50.822;3.280;2024-01-25T06:23:09;61.85;;;10.50;;
82900;SDS011;72673;50.822;3.280;2024-01-25T06:25:34;80.63;;;10.85;;
82900;SDS011;72673;50.822;3.280;2024-01-25T06:28:01;70.68;;;11.27;;
82900;SDS011;72673;50.822;3.280;2024-01-25T06:30:27;85.07;;;11.90;;
82900;SDS011;72673;50.822;3.280;2024-01-25T06:32:52;71.82;;;11.23;;
82900;SDS011;72673;50.822;3.280;2024-01-25T06:35:18;74.68;;;11.07;;
82900;SDS011;72673;50.822;3.280;2024-01-25T06:37:44;82.38;;;12.27;;
82900;SDS011;72673;50.822;3.280;2024-01-25T06:40:09;66.93;;;11.18;;
82900;SDS011;72673;50.822;3.280;2024-01-25T06:42:35;62.67;;;12.05;;
82900;SDS011;72673;50.822;3.280;2024-01-25T06:45:01;48.10;;;9.82;;
82900;SDS011;72673;50.822;3.280;2024-01-25T06:47:27;48.58;;;10.55;;
82900;SDS011;72673;50.822;3.280;2024-01-25T06:49:52;62.70;;;12.07;;
82900;SDS011;72673;50.822;3.280;2024-01-25T06:52:18;71.70;;;12.95;;
82900;SDS011;72673;50.822;3.280;2024-01-25T06:54:44;69.60;;;13.50;;
82900;SDS011;72673;50.822;3.280;2024-01-25T06:57:09;76.30;;;14.35;;
82900;SDS011;72673;50.822;3.280;2024-01-25T06:59:35;62.60;;;13.52;;
82900;SDS011;72673;50.822;3.280;2024-01-25T07:02:01;78.82;;;13.73;;
82900;SDS011;72673;50.822;3.280;2024-01-25T07:04:28;91.72;;;14.13;;
82900;SDS011;72673;50.822;3.280;2024-01-25T07:06:54;84.68;;;13.75;;
82900;SDS011;72673;50.822;3.280;2024-01-25T07:09:20;76.72;;;12.98;;
82900;SDS011;72673;50.822;3.280;2024-01-25T07:11:47;65.20;;;12.43;;
82900;SDS011;72673;50.822;3.280;2024-01-25T07:14:12;74.28;;;11.43;;
82900;SDS011;72673;50.822;3.280;2024-01-25T07:16:38;80.63;;;13.10;;
82900;SDS011;72673;50.822;3.280;2024-01-25T07:19:03;87.03;;;12.88;;
82900;SDS011;72673;50.822;3.280;2024-01-25T07:21:29;61.78;;;12.27;;
82900;SDS011;72673;50.822;3.280;2024-01-25T07:24:01;44.67;;;10.95;;
82900;SDS011;72673;50.822;3.280;2024-01-25T07:26:29;56.75;;;12.45;;
82900;SDS011;72673;50.822;3.280;2024-01-25T07:28:55;79.88;;;15.25;;
82900;SDS011;72673;50.822;3.280;2024-01-25T07:31:26;81.30;;;12.80;;
82900;SDS011;72673;50.822;3.280;2024-01-25T07:33:53;79.55;;;11.57;;
82900;SDS011;72673;50.822;3.280;2024-01-25T07:36:19;74.18;;;11.43;;
82900;SDS011;72673;50.822;3.280;2024-01-25T07:38:45;84.68;;;11.75;;
82900;SDS011;72673;50.822;3.280;2024-01-25T07:41:14;87.22;;;13.70;;
82900;SDS011;72673;50.822;3.280;2024-01-25T07:43:40;92.47;;;11.65;;
82900;SDS011;72673;50.822;3.280;2024-01-25T07:46:06;102.53;;;13.25;;
82900;SDS011;72673;50.822;3.280;2024-01-25T07:48:32;74.10;;;12.43;;
82900;SDS011;72673;50.822;3.280;2024-01-25T07:50:58;65.05;;;13.18;;
82900;SDS011;72673;50.822;3.280;2024-01-25T07:53:23;58.63;;;13.80;;
82900;SDS011;72673;50.822;3.280;2024-01-25T07:55:49;66.03;;;13.75;;
82900;SDS011;72673;50.822;3.280;2024-01-25T07:58:15;63.38;;;14.45;;
82900;SDS011;72673;50.822;3.280;2024-01-25T08:00:41;83.60;;;14.25;;
82900;SDS011;72673;50.822;3.280;2024-01-25T08:03:07;60.22;;;14.32;;
82900;SDS011;72673;50.822;3.280;2024-01-25T08:05:33;65.07;;;14.35;;
82900;SDS011;72673;50.822;3.280;2024-01-25T08:07:59;59.20;;;13.27;;
82900;SDS011;72673;50.822;3.280;2024-01-25T08:10:24;55.03;;;13.93;;
82900;SDS011;72673;50.822;3.280;2024-01-25T08:12:50;59.10;;;13.13;;
82900;SDS011;72673;50.822;3.280;2024-01-25T08:15:16;53.25;;;13.13;;
82900;SDS011;72673;50.822;3.280;2024-01-25T08:17:41;47.20;;;13.20;;
82900;SDS011;72673;50.822;3.280;2024-01-25T08:20:07;44.92;;;12.50;;
82900;SDS011;72673;50.822;3.280;2024-01-25T08:22:34;53.30;;;12.32;;
82900;SDS011;72673;50.822;3.280;2024-01-25T08:25:00;52.05;;;13.65;;
82900;SDS011;72673;50.822;3.280;2024-01-25T08:27:25;50.05;;;13.50;;
82900;SDS011;72673;50.822;3.280;2024-01-25T08:29:51;54.67;;;15.38;;
82900;SDS011;72673;50.822;3.280;2024-01-25T08:32:17;52.83;;;15.45;;
82900;SDS011;72673;50.822;3.280;2024-01-25T08:34:42;50.45;;;13.48;;
82900;SDS011;72673;50.822;3.280;2024-01-25T08:37:08;48.33;;;16.92;;
82900;SDS011;72673;50.822;3.280;2024-01-25T08:39:33;54.95;;;16.02;;
82900;SDS011;72673;50.822;3.280;2024-01-25T08:41:59;59.33;;;16.05;;
82900;SDS011;72673;50.822;3.280;2024-01-25T08:44:30;56.50;;;14.90;;
82900;SDS011;72673;50.822;3.280;2024-01-25T08:46:56;54.38;;;14.40;;
82900;SDS011;72673;50.822;3.280;2024-01-25T08:49:22;51.80;;;14.20;;
82900;SDS011;72673;50.822;3.280;2024-01-25T08:51:47;53.40;;;13.98;;
82900;SDS011;72673;50.822;3.280;2024-01-25T08:54:13;63.10;;;14.77;;
82900;SDS011;72673;50.822;3.280;2024-01-25T08:56:39;55.63;;;13.85;;
82900;SDS011;72673;50.822;3.280;2024-01-25T08:59:05;56.70;;;14.75;;
82900;SDS011;72673;50.822;3.280;2024-01-25T09:01:30;53.15;;;15.65;;
82900;SDS011;72673;50.822;3.280;2024-01-25T09:03:56;52.95;;;14.07;;
82900;SDS011;72673;50.822;3.280;2024-01-25T09:06:27;55.00;;;14.43;;
82900;SDS011;72673;50.822;3.280;2024-01-25T09:08:53;47.35;;;13.70;;
82900;SDS011;72673;50.822;3.280;2024-01-25T09:11:18;53.83;;;14.82;;
82900;SDS011;72673;50.822;3.280;2024-01-25T09:13:44;53.38;;;14.00;;
82900;SDS011;72673;50.822;3.280;2024-01-25T09:16:10;49.17;;;13.40;;
82900;SDS011;72673;50.822;3.280;2024-01-25T09:18:35;54.38;;;13.73;;
82900;SDS011;72673;50.822;3.280;2024-01-25T09:21:01;50.40;;;12.95;;
82900;SDS011;72673;50.822;3.280;2024-01-25T09:23:27;53.17;;;13.35;;
82900;SDS011;72673;50.822;3.280;2024-01-25T09:25:52;57.38;;;12.90;;
82900;SDS011;72673;50.822;3.280;2024-01-25T09:28:18;57.45;;;13.43;;
82900;SDS011;72673;50.822;3.280;2024-01-25T09:30:43;57.17;;;11.45;;
82900;SDS011;72673;50.822;3.280;2024-01-25T09:33:09;59.08;;;11.80;;
82900;SDS011;72673;50.822;3.280;2024-01-25T09:35:35;53.97;;;11.27;;
82900;SDS011;72673;50.822;3.280;2024-01-25T09:38:00;55.28;;;10.85;;
82900;SDS011;72673;50.822;3.280;2024-01-25T09:40:26;47.25;;;10.75;;
82900;SDS011;72673;50.822;3.280;2024-01-25T09:42:52;52.80;;;10.57;;
82900;SDS011;72673;50.822;3.280;2024-01-25T09:45:18;46.42;;;10.90;;
82900;SDS011;72673;50.822;3.280;2024-01-25T09:47:44;51.50;;;10.75;;
82900;SDS011;72673;50.822;3.280;2024-01-25T09:50:10;55.60;;;10.43;;
82900;SDS011;72673;50.822;3.280;2024-01-25T09:52:38;37.17;;;9.70;;
82900;SDS011;72673;50.822;3.280;2024-01-25T09:55:07;47.05;;;9.95;;
82900;SDS011;72673;50.822;3.280;2024-01-25T09:57:32;67.38;;;10.63;;
82900;SDS011;72673;50.822;3.280;2024-01-25T10:00:02;45.05;;;9.55;;
82900;SDS011;72673;50.822;3.280;2024-01-25T10:02:28;48.20;;;9.90;;
82900;SDS011;72673;50.822;3.280;2024-01-25T10:04:54;50.58;;;9.93;;
82900;SDS011;72673;50.822;3.280;2024-01-25T10:07:42;45.17;;;9.70;;
82900;SDS011;72673;50.822;3.280;2024-01-25T10:10:09;44.57;;;9.33;;
82900;SDS011;72673;50.822;3.280;2024-01-25T10:12:42;36.33;;;10.20;;
82900;SDS011;72673;50.822;3.280;2024-01-25T10:15:08;40.92;;;9.05;;
82900;SDS011;72673;50.822;3.280;2024-01-25T10:17:34;34.95;;;8.40;;
82900;SDS011;72673;50.822;3.280;2024-01-25T10:20:00;36.10;;;8.80;;
82900;SDS011;72673;50.822;3.280;2024-01-25T10:22:26;34.85;;;8.10;;
82900;SDS011;72673;50.822;3.280;2024-01-25T10:24:52;32.13;;;8.35;;
82900;SDS011;72673;50.822;3.280;2024-01-25T10:27:21;27.52;;;7.95;;
82900;SDS011;72673;50.822;3.280;2024-01-25T10:29:48;32.47;;;9.15;;
82900;SDS011;72673;50.822;3.280;2024-01-25T10:32:16;36.28;;;8.52;;
82900;SDS011;72673;50.822;3.280;2024-01-25T10:34:41;42.95;;;8.95;;
82900;SDS011;72673;50.822;3.280;2024-01-25T10:37:10;21.77;;;7.45;;
82900;SDS011;72673;50.822;3.280;2024-01-25T10:39:39;27.40;;;7.22;;
82900;SDS011;72673;50.822;3.280;2024-01-25T10:42:06;29.70;;;7.35;;
82900;SDS011;72673;50.822;3.280;2024-01-25T10:44:32;23.17;;;6.90;;
82900;SDS011;72673;50.822;3.280;2024-01-25T10:46:57;34.00;;;6.97;;
82900;SDS011;72673;50.822;3.280;2024-01-25T10:49:24;24.58;;;7.00;;
82900;SDS011;72673;50.822;3.280;2024-01-25T10:51:51;22.77;;;6.15;;
82900;SDS011;72673;50.822;3.280;2024-01-25T10:54:18;27.85;;;6.35;;
82900;SDS011;72673;50.822;3.280;2024-01-25T10:56:46;31.92;;;6.28;;
82900;SDS011;72673;50.822;3.280;2024-01-25T10:59:12;27.17;;;5.97;;
82900;SDS011;72673;50.822;3.280;2024-01-25T11:01:45;24.45;;;6.00;;
82900;SDS011;72673;50.822;3.280;2024-01-25T11:04:17;19.00;;;5.50;;
82900;SDS011;72673;50.822;3.280;2024-01-25T11:06:44;30.85;;;6.38;;
82900;SDS011;72673;50.822;3.280;2024-01-25T11:09:19;18.85;;;5.88;;
82900;SDS011;72673;50.822;3.280;2024-01-25T11:11:46;20.65;;;6.07;;
82900;SDS011;72673;50.822;3.280;2024-01-25T11:14:16;21.48;;;5.68;;
82900;SDS011;72673;50.822;3.280;2024-01-25T11:16:42;22.90;;;5.95;;
82900;SDS011;72673;50.822;3.280;2024-01-25T11:19:18;15.77;;;5.50;;
82900;SDS011;72673;50.822;3.280;2024-01-25T11:21:46;18.70;;;5.90;;
82900;SDS011;72673;50.822;3.280;2024-01-25T11:24:14;17.30;;;6.10;;
82900;SDS011;72673;50.822;3.280;2024-01-25T11:26:45;22.38;;;6.25;;
82900;SDS011;72673;50.822;3.280;2024-01-25T11:29:15;20.98;;;6.40;;
82900;SDS011;72673;50.822;3.280;2024-01-25T11:31:44;16.20;;;6.18;;
82900;SDS011;72673;50.822;3.280;2024-01-25T11:36:37;11.18;;;5.72;;
82900;SDS011;72673;50.822;3.280;2024-01-25T11:39:03;13.43;;;5.85;;
82900;SDS011;72673;50.822;3.280;2024-01-25T11:41:30;16.48;;;6.32;;
82900;SDS011;72673;50.822;3.280;2024-01-25T11:43:56;14.98;;;6.50;;
82900;SDS011;72673;50.822;3.280;2024-01-25T11:46:21;10.20;;;5.95;;
82900;SDS011;72673;50.822;3.280;2024-01-25T11:48:47;19.83;;;6.50;;
82900;SDS011;72673;50.822;3.280;2024-01-25T11:51:13;14.73;;;6.55;;
82900;SDS011;72673;50.822;3.280;2024-01-25T11:53:39;14.40;;;6.55;;
82900;SDS011;72673;50.822;3.280;2024-01-25T11:56:06;13.77;;;6.85;;
82900;SDS011;72673;50.822;3.280;2024-01-25T11:58:37;16.67;;;7.63;;
82900;SDS011;72673;50.822;3.280;2024-01-25T12:01:05;20.95;;;8.02;;
82900;SDS011;72673;50.822;3.280;2024-01-25T12:03:33;18.90;;;9.25;;
82900;SDS011;72673;50.822;3.280;2024-01-25T12:06:02;26.67;;;10.07;;
82900;SDS011;72673;50.822;3.280;2024-01-25T12:08:34;17.15;;;9.93;;
82900;SDS011;72673;50.822;3.280;2024-01-25T12:11:06;26.38;;;10.60;;
82900;SDS011;72673;50.822;3.280;2024-01-25T12:13:38;31.25;;;12.10;;
82900;SDS011;72673;50.822;3.280;2024-01-25T12:16:08;33.22;;;11.60;;
82900;SDS011;72673;50.822;3.280;2024-01-25T12:18:34;31.65;;;13.00;;
82900;SDS011;72673;50.822;3.280;2024-01-25T12:21:00;25.38;;;11.85;;
82900;SDS011;72673;50.822;3.280;2024-01-25T12:23:34;32.58;;;13.32;;
82900;SDS011;72673;50.822;3.280;2024-01-25T12:26:02;31.45;;;12.80;;
82900;SDS011;72673;50.822;3.280;2024-01-25T12:28:29;33.90;;;13.20;;
82900;SDS011;72673;50.822;3.280;2024-01-25T12:30:57;24.55;;;11.80;;
82900;SDS011;72673;50.822;3.280;2024-01-25T12:33:24;31.75;;;12.82;;
82900;SDS011;72673;50.822;3.280;2024-01-25T12:35:49;33.42;;;12.88;;
82900;SDS011;72673;50.822;3.280;2024-01-25T12:38:16;34.40;;;12.55;;
82900;SDS011;72673;50.822;3.280;2024-01-25T12:40:46;29.00;;;13.00;;
82900;SDS011;72673;50.822;3.280;2024-01-25T12:43:14;25.13;;;12.50;;
82900;SDS011;72673;50.822;3.280;2024-01-25T12:45:41;33.08;;;12.77;;
82900;SDS011;72673;50.822;3.280;2024-01-25T12:48:07;29.65;;;13.38;;
82900;SDS011;72673;50.822;3.280;2024-01-25T12:50:34;31.70;;;13.88;;
82900;SDS011;72673;50.822;3.280;2024-01-25T12:53:00;35.22;;;14.25;;
82900;SDS011;72673;50.822;3.280;2024-01-25T12:55:27;34.90;;;14.52;;
82900;SDS011;72673;50.822;3.280;2024-01-25T12:57:54;33.83;;;13.65;;
82900;SDS011;72673;50.822;3.280;2024-01-25T13:00:21;30.85;;;15.10;;
82900;SDS011;72673;50.822;3.280;2024-01-25T13:02:47;41.03;;;15.95;;
82900;SDS011;72673;50.822;3.280;2024-01-25T13:05:13;42.60;;;14.90;;
82900;SDS011;72673;50.822;3.280;2024-01-25T13:07:39;47.22;;;15.43;;
82900;SDS011;72673;50.822;3.280;2024-01-25T13:10:05;38.03;;;15.35;;
82900;SDS011;72673;50.822;3.280;2024-01-25T13:12:31;35.45;;;15.60;;
82900;SDS011;72673;50.822;3.280;2024-01-25T13:14:57;37.63;;;14.80;;
82900;SDS011;72673;50.822;3.280;2024-01-25T13:17:23;53.15;;;19.70;;
82900;SDS011;72673;50.822;3.280;2024-01-25T13:19:50;47.60;;;16.83;;
82900;SDS011;72673;50.822;3.280;2024-01-25T13:22:16;38.42;;;14.80;;
82900;SDS011;72673;50.822;3.280;2024-01-25T13:24:46;30.88;;;14.70;;
82900;SDS011;72673;50.822;3.280;2024-01-25T13:27:12;29.55;;;13.50;;
82900;SDS011;72673;50.822;3.280;2024-01-25T13:29:38;31.65;;;13.10;;
82900;SDS011;72673;50.822;3.280;2024-01-25T13:32:03;30.10;;;12.23;;
82900;SDS011;72673;50.822;3.280;2024-01-25T13:34:29;30.67;;;12.82;;
82900;SDS011;72673;50.822;3.280;2024-01-25T13:36:55;27.65;;;11.38;;
82900;SDS011;72673;50.822;3.280;2024-01-25T13:39:21;32.90;;;11.05;;
82900;SDS011;72673;50.822;3.280;2024-01-25T13:41:47;23.63;;;10.88;;
82900;SDS011;72673;50.822;3.280;2024-01-25T13:44:14;25.98;;;10.13;;
82900;SDS011;72673;50.822;3.280;2024-01-25T13:46:40;26.05;;;10.82;;
82900;SDS011;72673;50.822;3.280;2024-01-25T13:49:05;19.35;;;9.18;;
82900;SDS011;72673;50.822;3.280;2024-01-25T13:51:31;23.20;;;9.98;;
82900;SDS011;72673;50.822;3.280;2024-01-25T13:53:57;18.25;;;9.82;;
82900;SDS011;72673;50.822;3.280;2024-01-25T13:56:22;22.98;;;10.40;;
82900;SDS011;72673;50.822;3.280;2024-01-25T13:58:48;27.70;;;10.43;;
82900;SDS011;72673;50.822;3.280;2024-01-25T14:01:14;23.65;;;9.95;;
82900;SDS011;72673;50.822;3.280;2024-01-25T14:03:39;25.35;;;9.77;;
82900;SDS011;72673;50.822;3.280;2024-01-25T14:06:05;20.33;;;9.48;;
82900;SDS011;72673;50.822;3.280;2024-01-25T14:08:34;31.52;;;10.63;;
82900;SDS011;72673;50.822;3.280;2024-01-25T14:11:01;32.28;;;10.55;;
82900;SDS011;72673;50.822;3.280;2024-01-25T14:13:27;25.42;;;10.73;;
82900;SDS011;72673;50.822;3.280;2024-01-25T14:15:52;25.13;;;10.30;;
82900;SDS011;72673;50.822;3.280;2024-01-25T14:18:18;22.75;;;10.95;;
82900;SDS011;72673;50.822;3.280;2024-01-25T14:20:44;21.33;;;11.48;;
82900;SDS011;72673;50.822;3.280;2024-01-25T14:23:09;25.52;;;11.52;;
82900;SDS011;72673;50.822;3.280;2024-01-25T14:25:35;25.23;;;10.85;;